TimeEST,TemperatureF,Dew PointF,Humidity,Sea Level PressureIn,VisibilityMPH,Wind Direction,Wind SpeedMPH,Gust SpeedMPH,PrecipitationIn,Events,Conditions,WindDirDegrees,DateUTC
12:56 AM,34.0,32.0,92,29.44,7.0,NW,8.1,-,0.03,Rain,Light Rain,310,2012-12-27 05:56:00
1:27 AM,35.6,32.0,87,29.44,10.0,North,6.9,-,0.01,,Overcast,350,2012-12-27 06:27:00
1:56 AM,34.0,32.0,92,29.47,10.0,NW,12.7,-,0.01,Rain,Light Rain,310,2012-12-27 06:56:00
2:16 AM,33.8,32.0,93,29.47,9.0,NW,17.3,-,0.00,Rain,Light Rain,310,2012-12-27 07:16:00
2:29 AM,33.8,32.0,93,29.48,7.0,NW,16.1,-,0.00,Rain,Light Rain,310,2012-12-27 07:29:00
2:56 AM,33.1,30.9,92,29.49,5.0,NW,15.0,-,0.01,Rain,Light Rain,310,2012-12-27 07:56:00
3:34 AM,33.8,30.2,87,29.48,4.0,NW,13.8,-,0.01,Rain,Light Rain,320,2012-12-27 08:34:00
3:56 AM,33.1,30.9,92,29.49,6.0,NW,13.8,-,0.02,Rain,Light Rain,320,2012-12-27 08:56:00
4:11 AM,33.8,30.2,87,29.48,8.0,NW,13.8,-,0.00,Rain,Light Rain,310,2012-12-27 09:11:00
4:27 AM,33.8,30.2,87,29.48,2.0,NW,18.4,24.2,0.01,Snow,Light Snow,310,2012-12-27 09:27:00
4:31 AM,33.8,30.2,87,29.48,2.0,NW,17.3,-,0.02,Snow,Light Snow,310,2012-12-27 09:31:00
4:56 AM,33.1,30.9,92,29.51,5.0,NW,15.0,-,0.02,Snow,Light Snow,320,2012-12-27 09:56:00
5:02 AM,33.8,30.2,87,29.49,9.0,NNW,15.0,-,0.00,,Light Freezing Drizzle,330,2012-12-27 10:02:00
5:19 AM,33.8,30.2,87,29.50,10.0,NW,17.3,-,0.00,,Overcast,310,2012-12-27 10:19:00
5:56 AM,33.1,30.0,89,29.54,10.0,NW,17.3,-,0.00,,Overcast,310,2012-12-27 10:56:00
6:56 AM,33.1,30.0,89,29.58,9.0,NW,16.1,-,0.00,Snow,Light Snow,310,2012-12-27 11:56:00
7:56 AM,33.1,28.0,82,29.62,10.0,WNW,21.9,27.6,0.00,,Overcast,300,2012-12-27 12:56:00
8:20 AM,33.8,26.6,75,29.62,10.0,NW,20.7,27.6,N/A,,Overcast,310,2012-12-27 13:20:00
8:56 AM,33.1,27.0,78,29.65,10.0,NW,23.0,28.8,N/A,,Overcast,310,2012-12-27 13:56:00
9:02 AM,33.8,26.6,75,29.64,10.0,NW,20.7,31.1,N/A,,Overcast,310,2012-12-27 14:02:00
9:56 AM,34.0,26.1,73,29.69,10.0,NW,28.8,35.7,N/A,,Overcast,310,2012-12-27 14:56:00
10:56 AM,33.1,26.1,75,29.73,10.0,NW,19.6,32.2,N/A,,Overcast,310,2012-12-27 15:56:00
11:56 AM,33.1,25.0,72,29.73,10.0,WNW,21.9,31.1,N/A,,Overcast,300,2012-12-27 16:56:00
12:56 PM,33.1,25.0,72,29.75,10.0,NW,19.6,31.1,N/A,,Overcast,310,2012-12-27 17:56:00
2:56 PM,33.8,24.8,70,29.76,10.0,NW,23.0,32.2,N/A,,Mostly Cloudy,310,2012-12-27 19:56:00
3:56 PM,34.0,25.0,70,29.81,10.0,NW,20.7,27.6,N/A,,Mostly Cloudy,320,2012-12-27 20:56:00
4:56 PM,34.0,25.0,70,29.83,10.0,WNW,17.3,-,N/A,,Overcast,300,2012-12-27 21:56:00
5:56 PM,34.0,25.0,70,29.87,10.0,WNW,16.1,24.2,N/A,,Overcast,300,2012-12-27 22:56:00
6:56 PM,34.0,25.0,70,29.91,10.0,NW,13.8,-,N/A,,Overcast,320,2012-12-27 23:56:00
7:56 PM,33.1,24.1,70,29.92,10.0,NW,16.1,25.3,N/A,,Overcast,320,2012-12-28 00:56:00
8:56 PM,33.1,24.1,70,29.95,10.0,NW,23.0,27.6,N/A,,Overcast,310,2012-12-28 01:56:00
9:56 PM,33.1,24.1,70,29.96,10.0,NW,20.7,28.8,N/A,,Overcast,310,2012-12-28 02:56:00
10:35 PM,33.8,24.8,70,29.95,10.0,NW,11.5,-,N/A,,Overcast,320,2012-12-28 03:35:00
10:56 PM,33.1,24.1,70,29.98,10.0,NW,11.5,-,N/A,,Overcast,310,2012-12-28 03:56:00
11:56 PM,33.1,25.0,72,29.99,10.0,WNW,10.4,-,N/A,,Overcast,300,2012-12-28 04:56:00